Ana Sayfa
METAR-TAF:

METAR-TAF

Havaalanları :

Piney Island, Kuzey Carolina, Amerika Birleşik Devletleri

Enlem: 35-01-20N, Boylam: 076-27-45W, yükseklik: 5 m

Güncel hava durumu gözlemi

Rapor saat 05:11 UTC de 33 dakika önce yapıldı.
Rüzgar batıdan 5 kt
Sıcaklık 19°C
Nem 78%
Basınç 1022 hPa
Görüş mesafesi: 16.1 km
2900 ft yükseklikte parçalı bulutlu

METAR: KNBT 040511Z AUTO 27005KT 10SM SCT029 19/15 A3017 RMK AO2 T01890150

Saat: 00:44 (05:44 UTC)


TAF: eksik

4.000'den fazla havaalanı için hava durumu gözlemleri ve tahminleri (METAR ve TAF raporları).

Kullanılabilir istasyonlar harita üzerinde sarı ve kırmızı noktalarla gösterilir.

İstasyonun adını görmek için fareyi noktanın üzerinde gezdirin.

Sonrasında hava gözlem ve tahminlerini görmek için tıklayın.

Haritayı değiştirmek için: yaklaştırmak için siyah artı işaretli yeşil düğmeye ve uzaklaştırmak için de eksi işaretli düğmeye hızla tıklayın; bitişik haritalar için yeşil okları kullanın.


METAR-TAF: